Urb Park Hurst, Puerto Rico
Current Conditions -  °F | °C
As of 5:53 PM on Saturday 25 Oct 2014 (Local Time) from TJNR Reporting Station
Clear Clear  
Wind Chill: 83°   Ceiling: Unl
Heat Index: 89°   Visibility: 10mi
Dew Point: 73°   Wind: 8mph
Humidity: 72%   Direction: 180°S
Pressure: 29.88"   Gusts: NA
Location:  18.1853°N, 65.8667°W
Report Text: TJNR 252153Z AUTO 18007KT 10SM CLR 28/23 A2988 RMK AO2 SLP117 T02830228 $
Loading
Personal Weather Stations






























Interactive Weather Map
Tropical Storm Tracking
New forecast layout! Learn more

10-Day Weather Forecast

Advertisements
Track Severe Weather on mobile